Palm City, Florida
Current Conditions -  °F | °C
As of 5:35 AM on Sunday 28 Dec 2014 (Local Time) from KSUA Reporting Station
Haze Haze  
Wind Chill: 64°   Ceiling: 700
Heat Index: 64°   Visibility: 1mi
Dew Point: 63°   Wind: 0mph
Humidity: 94%   Direction: NA
Pressure: 30.15"   Gusts: NA
Location:  27.16°N, 80.27°W
Report Text: KSUA 281035Z AUTO 00000KT 1SM BR VV007 18/17 A3015 RMK AO2
Loading
Personal Weather Stations






























Interactive Weather Map New forecast layout! Learn more

10-Day Weather Forecast

Advertisements
Track Severe Weather on mobile